sensor_id;sensor_type;location;lat;lon;timestamp;P1;durP1;ratioP1;P2;durP2;ratioP2
75062;SDS011;63981;51.052;13.754;2023-03-01T00:01:31;23.92;;;14.32;;
75062;SDS011;63981;51.052;13.754;2023-03-01T00:03:57;23.73;;;13.35;;
75062;SDS011;63981;51.052;13.754;2023-03-01T00:06:24;22.65;;;13.65;;
75062;SDS011;63981;51.052;13.754;2023-03-01T00:08:51;28.83;;;15.90;;
75062;SDS011;63981;51.052;13.754;2023-03-01T00:11:27;31.58;;;16.25;;
75062;SDS011;63981;51.052;13.754;2023-03-01T00:13:56;26.40;;;16.35;;
75062;SDS011;63981;51.052;13.754;2023-03-01T00:16:24;29.42;;;14.60;;
75062;SDS011;63981;51.052;13.754;2023-03-01T00:18:55;25.98;;;14.70;;
75062;SDS011;63981;51.052;13.754;2023-03-01T00:21:22;30.45;;;15.27;;
75062;SDS011;63981;51.052;13.754;2023-03-01T00:23:49;25.20;;;15.80;;
75062;SDS011;63981;51.052;13.754;2023-03-01T00:26:15;31.27;;;18.73;;
75062;SDS011;63981;51.052;13.754;2023-03-01T00:28:43;31.55;;;17.50;;
75062;SDS011;63981;51.052;13.754;2023-03-01T00:31:17;28.08;;;17.30;;
75062;SDS011;63981;51.052;13.754;2023-03-01T00:33:45;33.85;;;18.13;;
75062;SDS011;63981;51.052;13.754;2023-03-01T00:36:12;34.47;;;18.73;;
75062;SDS011;63981;51.052;13.754;2023-03-01T00:38:40;32.47;;;18.60;;
75062;SDS011;63981;51.052;13.754;2023-03-01T00:41:12;31.40;;;19.00;;
75062;SDS011;63981;51.052;13.754;2023-03-01T00:43:41;39.17;;;19.45;;
75062;SDS011;63981;51.052;13.754;2023-03-01T00:46:11;31.30;;;17.67;;
75062;SDS011;63981;51.052;13.754;2023-03-01T00:48:44;32.78;;;17.30;;
75062;SDS011;63981;51.052;13.754;2023-03-01T00:51:11;33.63;;;18.95;;
75062;SDS011;63981;51.052;13.754;2023-03-01T00:53:40;27.15;;;15.10;;
75062;SDS011;63981;51.052;13.754;2023-03-01T00:56:07;23.50;;;13.75;;
75062;SDS011;63981;51.052;13.754;2023-03-01T00:58:38;30.75;;;16.15;;
75062;SDS011;63981;51.052;13.754;2023-03-01T01:01:11;28.88;;;16.00;;
75062;SDS011;63981;51.052;13.754;2023-03-01T01:06:24;28.50;;;15.32;;
75062;SDS011;63981;51.052;13.754;2023-03-01T01:08:52;25.42;;;14.20;;
75062;SDS011;63981;51.052;13.754;2023-03-01T01:11:19;29.38;;;15.50;;
75062;SDS011;63981;51.052;13.754;2023-03-01T01:13:46;25.13;;;13.02;;
75062;SDS011;63981;51.052;13.754;2023-03-01T01:16:13;29.40;;;15.85;;
75062;SDS011;63981;51.052;13.754;2023-03-01T01:18:41;36.45;;;16.85;;
75062;SDS011;63981;51.052;13.754;2023-03-01T01:21:09;26.08;;;14.25;;
75062;SDS011;63981;51.052;13.754;2023-03-01T01:23:40;23.08;;;11.75;;
75062;SDS011;63981;51.052;13.754;2023-03-01T01:26:08;28.17;;;16.95;;
75062;SDS011;63981;51.052;13.754;2023-03-01T01:31:02;23.90;;;13.38;;
75062;SDS011;63981;51.052;13.754;2023-03-01T01:33:29;19.38;;;10.65;;
75062;SDS011;63981;51.052;13.754;2023-03-01T01:35:55;28.65;;;14.98;;
75062;SDS011;63981;51.052;13.754;2023-03-01T01:38:20;29.02;;;15.50;;
75062;SDS011;63981;51.052;13.754;2023-03-01T01:40:46;22.83;;;12.85;;
75062;SDS011;63981;51.052;13.754;2023-03-01T01:43:24;25.70;;;12.75;;
75062;SDS011;63981;51.052;13.754;2023-03-01T01:45:55;22.98;;;13.30;;
75062;SDS011;63981;51.052;13.754;2023-03-01T01:51:06;23.35;;;13.20;;
75062;SDS011;63981;51.052;13.754;2023-03-01T01:53:36;26.58;;;12.85;;
75062;SDS011;63981;51.052;13.754;2023-03-01T01:56:03;26.50;;;13.73;;
75062;SDS011;63981;51.052;13.754;2023-03-01T01:58:32;24.58;;;14.15;;
75062;SDS011;63981;51.052;13.754;2023-03-01T02:00:58;22.75;;;12.20;;
75062;SDS011;63981;51.052;13.754;2023-03-01T02:03:27;26.65;;;15.02;;
75062;SDS011;63981;51.052;13.754;2023-03-01T02:06:03;29.50;;;16.10;;
75062;SDS011;63981;51.052;13.754;2023-03-01T02:08:36;28.20;;;15.75;;
75062;SDS011;63981;51.052;13.754;2023-03-01T02:11:06;31.23;;;16.27;;
75062;SDS011;63981;51.052;13.754;2023-03-01T02:13:34;26.35;;;13.48;;
75062;SDS011;63981;51.052;13.754;2023-03-01T02:16:04;24.27;;;13.18;;
75062;SDS011;63981;51.052;13.754;2023-03-01T02:18:33;26.35;;;14.10;;
75062;SDS011;63981;51.052;13.754;2023-03-01T02:28:59;23.38;;;11.75;;
75062;SDS011;63981;51.052;13.754;2023-03-01T02:31:25;22.05;;;12.85;;
75062;SDS011;63981;51.052;13.754;2023-03-01T02:34:07;27.70;;;14.63;;
75062;SDS011;63981;51.052;13.754;2023-03-01T02:36:46;29.42;;;17.00;;
75062;SDS011;63981;51.052;13.754;2023-03-01T02:39:16;25.55;;;15.07;;
75062;SDS011;63981;51.052;13.754;2023-03-01T02:41:46;25.88;;;13.43;;
75062;SDS011;63981;51.052;13.754;2023-03-01T02:44:15;24.02;;;12.27;;
75062;SDS011;63981;51.052;13.754;2023-03-01T02:46:46;26.70;;;15.00;;
75062;SDS011;63981;51.052;13.754;2023-03-01T02:49:19;31.38;;;16.10;;
75062;SDS011;63981;51.052;13.754;2023-03-01T02:55:11;26.17;;;14.25;;
75062;SDS011;63981;51.052;13.754;2023-03-01T02:57:40;24.13;;;13.88;;
75062;SDS011;63981;51.052;13.754;2023-03-01T03:00:11;27.42;;;14.27;;
75062;SDS011;63981;51.052;13.754;2023-03-01T03:02:51;25.60;;;13.38;;
75062;SDS011;63981;51.052;13.754;2023-03-01T03:05:23;25.33;;;14.02;;
75062;SDS011;63981;51.052;13.754;2023-03-01T03:07:55;25.42;;;12.55;;
75062;SDS011;63981;51.052;13.754;2023-03-01T03:10:23;27.60;;;13.77;;
75062;SDS011;63981;51.052;13.754;2023-03-01T03:12:56;24.13;;;12.95;;
75062;SDS011;63981;51.052;13.754;2023-03-01T03:15:23;28.73;;;14.35;;
75062;SDS011;63981;51.052;13.754;2023-03-01T03:17:51;24.25;;;12.02;;
75062;SDS011;63981;51.052;13.754;2023-03-01T03:20:19;23.92;;;12.88;;
75062;SDS011;63981;51.052;13.754;2023-03-01T03:22:47;22.70;;;12.75;;
75062;SDS011;63981;51.052;13.754;2023-03-01T03:25:15;27.48;;;14.55;;
75062;SDS011;63981;51.052;13.754;2023-03-01T03:27:43;19.33;;;10.50;;
75062;SDS011;63981;51.052;13.754;2023-03-01T03:30:11;24.38;;;12.45;;
75062;SDS011;63981;51.052;13.754;2023-03-01T03:32:43;24.80;;;12.77;;
75062;SDS011;63981;51.052;13.754;2023-03-01T03:35:18;25.83;;;12.68;;
75062;SDS011;63981;51.052;13.754;2023-03-01T03:42:57;22.75;;;12.65;;
75062;SDS011;63981;51.052;13.754;2023-03-01T03:45:23;26.67;;;12.95;;
75062;SDS011;63981;51.052;13.754;2023-03-01T03:47:49;26.40;;;13.35;;
75062;SDS011;63981;51.052;13.754;2023-03-01T03:50:15;19.40;;;10.80;;
75062;SDS011;63981;51.052;13.754;2023-03-01T03:52:42;25.77;;;13.13;;
75062;SDS011;63981;51.052;13.754;2023-03-01T03:55:08;26.88;;;14.45;;
75062;SDS011;63981;51.052;13.754;2023-03-01T03:57:39;22.65;;;12.98;;
75062;SDS011;63981;51.052;13.754;2023-03-01T04:00:07;26.17;;;13.93;;
75062;SDS011;63981;51.052;13.754;2023-03-01T04:02:42;28.60;;;15.13;;
75062;SDS011;63981;51.052;13.754;2023-03-01T04:05:09;26.27;;;15.32;;
75062;SDS011;63981;51.052;13.754;2023-03-01T04:07:37;27.08;;;14.68;;
75062;SDS011;63981;51.052;13.754;2023-03-01T04:10:04;25.63;;;14.63;;
75062;SDS011;63981;51.052;13.754;2023-03-01T04:12:31;31.27;;;16.17;;
75062;SDS011;63981;51.052;13.754;2023-03-01T04:14:59;31.15;;;15.77;;
75062;SDS011;63981;51.052;13.754;2023-03-01T04:17:26;27.90;;;13.50;;
75062;SDS011;63981;51.052;13.754;2023-03-01T04:19:52;22.08;;;11.77;;
75062;SDS011;63981;51.052;13.754;2023-03-01T04:22:18;24.33;;;12.82;;
75062;SDS011;63981;51.052;13.754;2023-03-01T04:24:44;23.13;;;12.02;;
75062;SDS011;63981;51.052;13.754;2023-03-01T04:27:10;24.90;;;12.43;;
75062;SDS011;63981;51.052;13.754;2023-03-01T04:29:36;23.42;;;12.38;;
75062;SDS011;63981;51.052;13.754;2023-03-01T04:32:02;17.60;;;10.55;;
75062;SDS011;63981;51.052;13.754;2023-03-01T04:34:29;22.77;;;11.52;;
75062;SDS011;63981;51.052;13.754;2023-03-01T04:36:55;23.80;;;11.85;;
75062;SDS011;63981;51.052;13.754;2023-03-01T04:39:21;26.35;;;13.75;;
75062;SDS011;63981;51.052;13.754;2023-03-01T04:41:47;23.85;;;11.93;;
75062;SDS011;63981;51.052;13.754;2023-03-01T04:44:12;24.10;;;12.45;;
75062;SDS011;63981;51.052;13.754;2023-03-01T04:46:38;34.20;;;16.52;;
75062;SDS011;63981;51.052;13.754;2023-03-01T04:49:04;27.35;;;15.05;;
75062;SDS011;63981;51.052;13.754;2023-03-01T04:51:30;30.63;;;15.85;;
75062;SDS011;63981;51.052;13.754;2023-03-01T04:53:57;31.45;;;14.85;;
75062;SDS011;63981;51.052;13.754;2023-03-01T04:56:23;27.95;;;14.38;;
75062;SDS011;63981;51.052;13.754;2023-03-01T04:58:49;26.48;;;12.85;;
75062;SDS011;63981;51.052;13.754;2023-03-01T05:01:19;23.55;;;11.90;;
75062;SDS011;63981;51.052;13.754;2023-03-01T05:03:47;25.08;;;12.63;;
75062;SDS011;63981;51.052;13.754;2023-03-01T05:06:14;26.13;;;15.20;;
75062;SDS011;63981;51.052;13.754;2023-03-01T05:08:41;22.70;;;12.77;;
75062;SDS011;63981;51.052;13.754;2023-03-01T05:11:08;25.98;;;14.43;;
75062;SDS011;63981;51.052;13.754;2023-03-01T05:13:35;24.77;;;12.60;;
75062;SDS011;63981;51.052;13.754;2023-03-01T05:16:02;26.30;;;13.85;;
75062;SDS011;63981;51.052;13.754;2023-03-01T05:18:31;26.05;;;12.82;;
75062;SDS011;63981;51.052;13.754;2023-03-01T05:23:32;23.48;;;12.38;;
75062;SDS011;63981;51.052;13.754;2023-03-01T05:25:59;22.85;;;11.15;;
75062;SDS011;63981;51.052;13.754;2023-03-01T05:28:26;26.58;;;12.05;;
75062;SDS011;63981;51.052;13.754;2023-03-01T05:30:53;22.17;;;10.90;;
75062;SDS011;63981;51.052;13.754;2023-03-01T05:33:20;22.80;;;12.27;;
75062;SDS011;63981;51.052;13.754;2023-03-01T05:35:47;24.20;;;12.40;;
75062;SDS011;63981;51.052;13.754;2023-03-01T05:38:14;24.02;;;11.50;;
75062;SDS011;63981;51.052;13.754;2023-03-01T05:40:40;23.58;;;11.30;;
75062;SDS011;63981;51.052;13.754;2023-03-01T05:43:07;25.42;;;12.32;;
75062;SDS011;63981;51.052;13.754;2023-03-01T05:45:35;17.23;;;10.60;;
75062;SDS011;63981;51.052;13.754;2023-03-01T05:48:02;23.67;;;12.38;;
75062;SDS011;63981;51.052;13.754;2023-03-01T05:50:29;25.00;;;11.98;;
75062;SDS011;63981;51.052;13.754;2023-03-01T05:53:02;26.20;;;13.20;;
75062;SDS011;63981;51.052;13.754;2023-03-01T05:55:33;21.90;;;12.00;;
75062;SDS011;63981;51.052;13.754;2023-03-01T05:58:00;23.63;;;13.02;;
75062;SDS011;63981;51.052;13.754;2023-03-01T06:00:28;24.67;;;13.30;;
75062;SDS011;63981;51.052;13.754;2023-03-01T06:02:55;27.95;;;14.13;;
75062;SDS011;63981;51.052;13.754;2023-03-01T06:05:22;22.77;;;11.95;;
75062;SDS011;63981;51.052;13.754;2023-03-01T06:07:48;23.55;;;11.88;;
75062;SDS011;63981;51.052;13.754;2023-03-01T06:10:15;27.65;;;13.48;;
75062;SDS011;63981;51.052;13.754;2023-03-01T06:12:41;26.83;;;12.10;;
75062;SDS011;63981;51.052;13.754;2023-03-01T06:15:09;25.13;;;12.35;;
75062;SDS011;63981;51.052;13.754;2023-03-01T06:17:40;24.50;;;12.43;;
75062;SDS011;63981;51.052;13.754;2023-03-01T06:20:11;22.65;;;12.52;;
75062;SDS011;63981;51.052;13.754;2023-03-01T06:22:43;26.92;;;13.15;;
75062;SDS011;63981;51.052;13.754;2023-03-01T06:25:10;26.98;;;13.00;;
75062;SDS011;63981;51.052;13.754;2023-03-01T06:27:38;27.67;;;13.98;;
75062;SDS011;63981;51.052;13.754;2023-03-01T06:30:04;22.38;;;11.30;;
75062;SDS011;63981;51.052;13.754;2023-03-01T06:32:30;26.20;;;13.38;;
75062;SDS011;63981;51.052;13.754;2023-03-01T06:34:57;24.52;;;12.52;;
75062;SDS011;63981;51.052;13.754;2023-03-01T06:37:24;22.05;;;12.10;;
75062;SDS011;63981;51.052;13.754;2023-03-01T06:39:50;23.42;;;13.13;;
75062;SDS011;63981;51.052;13.754;2023-03-01T06:42:16;27.45;;;13.85;;
75062;SDS011;63981;51.052;13.754;2023-03-01T06:44:42;26.63;;;14.07;;
75062;SDS011;63981;51.052;13.754;2023-03-01T06:47:07;39.63;;;19.65;;
75062;SDS011;63981;51.052;13.754;2023-03-01T06:49:33;23.42;;;13.55;;
75062;SDS011;63981;51.052;13.754;2023-03-01T06:51:59;30.05;;;14.68;;
75062;SDS011;63981;51.052;13.754;2023-03-01T06:54:25;25.23;;;13.88;;
75062;SDS011;63981;51.052;13.754;2023-03-01T06:56:50;29.55;;;13.75;;
75062;SDS011;63981;51.052;13.754;2023-03-01T06:59:16;32.17;;;15.25;;
75062;SDS011;63981;51.052;13.754;2023-03-01T07:01:42;30.50;;;13.25;;
75062;SDS011;63981;51.052;13.754;2023-03-01T07:04:09;31.48;;;15.05;;
75062;SDS011;63981;51.052;13.754;2023-03-01T07:06:35;28.88;;;14.52;;
75062;SDS011;63981;51.052;13.754;2023-03-01T07:09:01;25.27;;;13.13;;
75062;SDS011;63981;51.052;13.754;2023-03-01T07:11:27;26.60;;;13.88;;
75062;SDS011;63981;51.052;13.754;2023-03-01T07:13:53;26.55;;;14.57;;
75062;SDS011;63981;51.052;13.754;2023-03-01T07:16:19;22.92;;;12.13;;
75062;SDS011;63981;51.052;13.754;2023-03-01T07:18:45;26.27;;;14.13;;
75062;SDS011;63981;51.052;13.754;2023-03-01T07:21:12;27.08;;;14.35;;
75062;SDS011;63981;51.052;13.754;2023-03-01T07:23:39;28.60;;;13.82;;
75062;SDS011;63981;51.052;13.754;2023-03-01T07:26:05;27.90;;;13.90;;
75062;SDS011;63981;51.052;13.754;2023-03-01T07:28:31;26.52;;;14.13;;
75062;SDS011;63981;51.052;13.754;2023-03-01T07:31:02;25.92;;;14.10;;
75062;SDS011;63981;51.052;13.754;2023-03-01T07:33:28;26.63;;;14.70;;
75062;SDS011;63981;51.052;13.754;2023-03-01T07:35:57;22.90;;;12.35;;
75062;SDS011;63981;51.052;13.754;2023-03-01T07:38:25;27.08;;;14.02;;
75062;SDS011;63981;51.052;13.754;2023-03-01T07:40:51;26.80;;;14.88;;
75062;SDS011;63981;51.052;13.754;2023-03-01T07:43:16;28.65;;;15.65;;
75062;SDS011;63981;51.052;13.754;2023-03-01T07:45:42;29.38;;;15.60;;
75062;SDS011;63981;51.052;13.754;2023-03-01T07:48:08;27.73;;;15.50;;
75062;SDS011;63981;51.052;13.754;2023-03-01T07:50:33;26.20;;;15.18;;
75062;SDS011;63981;51.052;13.754;2023-03-01T07:52:59;30.45;;;15.00;;
75062;SDS011;63981;51.052;13.754;2023-03-01T07:55:25;26.35;;;15.63;;
75062;SDS011;63981;51.052;13.754;2023-03-01T07:57:51;24.55;;;14.73;;
75062;SDS011;63981;51.052;13.754;2023-03-01T08:00:16;26.85;;;15.23;;
75062;SDS011;63981;51.052;13.754;2023-03-01T08:02:42;28.98;;;15.93;;
75062;SDS011;63981;51.052;13.754;2023-03-01T08:05:09;26.50;;;15.98;;
75062;SDS011;63981;51.052;13.754;2023-03-01T08:07:35;24.65;;;14.07;;
75062;SDS011;63981;51.052;13.754;2023-03-01T08:10:01;22.27;;;14.10;;
75062;SDS011;63981;51.052;13.754;2023-03-01T08:12:26;26.42;;;16.35;;
75062;SDS011;63981;51.052;13.754;2023-03-01T08:14:53;21.48;;;13.27;;
75062;SDS011;63981;51.052;13.754;2023-03-01T08:17:19;23.85;;;15.32;;
75062;SDS011;63981;51.052;13.754;2023-03-01T08:19:45;23.13;;;14.88;;
75062;SDS011;63981;51.052;13.754;2023-03-01T08:22:11;20.23;;;13.82;;
75062;SDS011;63981;51.052;13.754;2023-03-01T08:24:38;22.77;;;14.65;;
75062;SDS011;63981;51.052;13.754;2023-03-01T08:27:03;24.65;;;15.18;;
75062;SDS011;63981;51.052;13.754;2023-03-01T08:29:32;22.50;;;15.63;;
75062;SDS011;63981;51.052;13.754;2023-03-01T08:31:58;25.15;;;14.82;;
75062;SDS011;63981;51.052;13.754;2023-03-01T08:34:24;23.92;;;14.10;;
75062;SDS011;63981;51.052;13.754;2023-03-01T08:36:51;26.77;;;15.95;;
75062;SDS011;63981;51.052;13.754;2023-03-01T08:39:18;25.42;;;16.08;;
75062;SDS011;63981;51.052;13.754;2023-03-01T08:41:44;24.73;;;15.27;;
75062;SDS011;63981;51.052;13.754;2023-03-01T08:44:11;23.73;;;14.95;;
75062;SDS011;63981;51.052;13.754;2023-03-01T08:46:39;25.77;;;16.38;;
75062;SDS011;63981;51.052;13.754;2023-03-01T08:49:13;28.33;;;15.65;;
75062;SDS011;63981;51.052;13.754;2023-03-01T08:51:40;23.60;;;15.07;;
75062;SDS011;63981;51.052;13.754;2023-03-01T08:54:09;25.73;;;14.80;;
75062;SDS011;63981;51.052;13.754;2023-03-01T08:56:37;26.35;;;16.83;;
75062;SDS011;63981;51.052;13.754;2023-03-01T08:59:04;25.15;;;15.68;;
75062;SDS011;63981;51.052;13.754;2023-03-01T09:01:30;22.52;;;14.75;;
75062;SDS011;63981;51.052;13.754;2023-03-01T09:03:56;22.10;;;14.70;;
75062;SDS011;63981;51.052;13.754;2023-03-01T09:06:21;24.27;;;14.80;;
75062;SDS011;63981;51.052;13.754;2023-03-01T09:08:47;24.35;;;14.98;;
75062;SDS011;63981;51.052;13.754;2023-03-01T09:11:15;24.73;;;15.50;;
75062;SDS011;63981;51.052;13.754;2023-03-01T09:13:43;22.95;;;14.93;;
75062;SDS011;63981;51.052;13.754;2023-03-01T09:16:11;24.35;;;14.13;;
75062;SDS011;63981;51.052;13.754;2023-03-01T09:18:38;24.48;;;15.70;;
75062;SDS011;63981;51.052;13.754;2023-03-01T09:21:05;22.23;;;15.27;;
75062;SDS011;63981;51.052;13.754;2023-03-01T09:23:42;24.25;;;16.30;;
75062;SDS011;63981;51.052;13.754;2023-03-01T09:26:11;24.35;;;16.13;;
75062;SDS011;63981;51.052;13.754;2023-03-01T09:28:41;25.30;;;14.93;;
75062;SDS011;63981;51.052;13.754;2023-03-01T09:31:09;25.60;;;17.05;;
75062;SDS011;63981;51.052;13.754;2023-03-01T09:36:05;23.15;;;15.23;;
75062;SDS011;63981;51.052;13.754;2023-03-01T09:40:59;25.02;;;14.88;;
75062;SDS011;63981;51.052;13.754;2023-03-01T09:43:40;24.63;;;16.08;;
75062;SDS011;63981;51.052;13.754;2023-03-01T09:46:08;22.95;;;14.23;;
75062;SDS011;63981;51.052;13.754;2023-03-01T09:48:41;23.10;;;14.93;;
75062;SDS011;63981;51.052;13.754;2023-03-01T09:51:12;21.95;;;14.88;;
75062;SDS011;63981;51.052;13.754;2023-03-01T09:53:48;23.30;;;15.60;;
75062;SDS011;63981;51.052;13.754;2023-03-01T09:56:19;23.80;;;15.77;;
75062;SDS011;63981;51.052;13.754;2023-03-01T09:59:06;23.20;;;15.52;;
75062;SDS011;63981;51.052;13.754;2023-03-01T10:12:58;21.75;;;15.57;;
75062;SDS011;63981;51.052;13.754;2023-03-01T10:15:40;23.88;;;16.63;;
75062;SDS011;63981;51.052;13.754;2023-03-01T10:18:14;22.10;;;15.65;;
75062;SDS011;63981;51.052;13.754;2023-03-01T10:23:11;22.85;;;16.40;;
75062;SDS011;63981;51.052;13.754;2023-03-01T10:28:41;21.25;;;14.88;;
75062;SDS011;63981;51.052;13.754;2023-03-01T10:31:18;21.25;;;16.17;;
75062;SDS011;63981;51.052;13.754;2023-03-01T10:33:47;23.33;;;15.02;;
75062;SDS011;63981;51.052;13.754;2023-03-01T10:36:16;21.10;;;15.55;;
75062;SDS011;63981;51.052;13.754;2023-03-01T10:38:52;22.42;;;16.05;;
75062;SDS011;63981;51.052;13.754;2023-03-01T10:41:20;19.45;;;14.90;;
75062;SDS011;63981;51.052;13.754;2023-03-01T10:43:49;21.00;;;15.02;;
75062;SDS011;63981;51.052;13.754;2023-03-01T10:46:30;18.50;;;14.20;;
75062;SDS011;63981;51.052;13.754;2023-03-01T10:49:07;18.63;;;14.50;;
75062;SDS011;63981;51.052;13.754;2023-03-01T10:51:41;19.55;;;15.65;;
75062;SDS011;63981;51.052;13.754;2023-03-01T10:54:22;21.63;;;15.60;;
75062;SDS011;63981;51.052;13.754;2023-03-01T10:59:35;18.23;;;15.20;;
75062;SDS011;63981;51.052;13.754;2023-03-01T11:04:56;20.17;;;17.00;;
75062;SDS011;63981;51.052;13.754;2023-03-01T11:07:29;19.98;;;16.33;;
75062;SDS011;63981;51.052;13.754;2023-03-01T11:09:55;17.45;;;15.23;;
75062;SDS011;63981;51.052;13.754;2023-03-01T11:12:21;15.95;;;14.25;;
75062;SDS011;63981;51.052;13.754;2023-03-01T11:14:48;13.90;;;12.30;;
75062;SDS011;63981;51.052;13.754;2023-03-01T11:17:29;16.75;;;14.50;;
75062;SDS011;63981;51.052;13.754;2023-03-01T11:20:02;14.95;;;12.35;;
75062;SDS011;63981;51.052;13.754;2023-03-01T11:22:52;15.25;;;12.98;;
75062;SDS011;63981;51.052;13.754;2023-03-01T11:25:20;15.13;;;13.60;;
75062;SDS011;63981;51.052;13.754;2023-03-01T11:27:51;15.60;;;13.32;;
75062;SDS011;63981;51.052;13.754;2023-03-01T11:32:57;11.48;;;10.25;;
75062;SDS011;63981;51.052;13.754;2023-03-01T11:38:29;12.10;;;10.88;;
75062;SDS011;63981;51.052;13.754;2023-03-01T11:41:11;12.32;;;10.98;;
75062;SDS011;63981;51.052;13.754;2023-03-01T11:55:08;13.10;;;11.38;;
75062;SDS011;63981;51.052;13.754;2023-03-01T12:05:42;11.75;;;10.55;;
75062;SDS011;63981;51.052;13.754;2023-03-01T12:38:44;16.90;;;15.10;;
75062;SDS011;63981;51.052;13.754;2023-03-01T12:49:41;16.55;;;13.77;;
75062;SDS011;63981;51.052;13.754;2023-03-01T12:52:22;17.40;;;14.20;;
75062;SDS011;63981;51.052;13.754;2023-03-01T12:54:51;18.60;;;14.63;;
75062;SDS011;63981;51.052;13.754;2023-03-01T13:02:47;17.40;;;14.02;;
75062;SDS011;63981;51.052;13.754;2023-03-01T13:10:27;20.75;;;13.95;;
75062;SDS011;63981;51.052;13.754;2023-03-01T13:13:01;17.65;;;12.95;;
75062;SDS011;63981;51.052;13.754;2023-03-01T13:15:36;17.67;;;13.35;;
75062;SDS011;63981;51.052;13.754;2023-03-01T13:18:48;21.27;;;14.13;;
75062;SDS011;63981;51.052;13.754;2023-03-01T13:20:51;18.20;;;12.90;;
75062;SDS011;63981;51.052;13.754;2023-03-01T13:33:42;15.93;;;12.05;;
75062;SDS011;63981;51.052;13.754;2023-03-01T13:36:10;15.63;;;11.98;;
75062;SDS011;63981;51.052;13.754;2023-03-01T13:41:11;15.75;;;12.52;;
75062;SDS011;63981;51.052;13.754;2023-03-01T13:43:40;16.65;;;13.32;;
75062;SDS011;63981;51.052;13.754;2023-03-01T13:46:08;16.30;;;12.50;;
75062;SDS011;63981;51.052;13.754;2023-03-01T13:48:37;13.52;;;11.77;;
75062;SDS011;63981;51.052;13.754;2023-03-01T13:51:06;15.50;;;12.73;;
75062;SDS011;63981;51.052;13.754;2023-03-01T13:53:35;16.95;;;13.43;;
75062;SDS011;63981;51.052;13.754;2023-03-01T13:56:09;15.45;;;13.23;;
75062;SDS011;63981;51.052;13.754;2023-03-01T13:59:39;15.55;;;12.95;;
75062;SDS011;63981;51.052;13.754;2023-03-01T14:01:44;15.82;;;14.02;;
75062;SDS011;63981;51.052;13.754;2023-03-01T14:04:28;16.77;;;14.18;;
75062;SDS011;63981;51.052;13.754;2023-03-01T14:07:16;20.45;;;15.15;;
75062;SDS011;63981;51.052;13.754;2023-03-01T14:09:44;16.80;;;14.02;;
75062;SDS011;63981;51.052;13.754;2023-03-01T14:14:48;14.85;;;13.23;;
75062;SDS011;63981;51.052;13.754;2023-03-01T14:17:21;16.05;;;14.35;;
75062;SDS011;63981;51.052;13.754;2023-03-01T14:22:44;15.68;;;13.77;;
75062;SDS011;63981;51.052;13.754;2023-03-01T14:28:14;15.88;;;14.27;;
75062;SDS011;63981;51.052;13.754;2023-03-01T14:30:44;17.50;;;15.25;;
75062;SDS011;63981;51.052;13.754;2023-03-01T14:33:18;15.40;;;13.70;;
75062;SDS011;63981;51.052;13.754;2023-03-01T14:38:45;14.52;;;13.02;;
75062;SDS011;63981;51.052;13.754;2023-03-01T14:41:12;15.70;;;13.27;;
75062;SDS011;63981;51.052;13.754;2023-03-01T14:43:45;15.82;;;13.15;;
75062;SDS011;63981;51.052;13.754;2023-03-01T14:48:48;15.30;;;13.70;;
75062;SDS011;63981;51.052;13.754;2023-03-01T14:51:16;18.10;;;14.38;;
75062;SDS011;63981;51.052;13.754;2023-03-01T14:53:42;17.45;;;15.07;;
75062;SDS011;63981;51.052;13.754;2023-03-01T14:56:15;17.25;;;13.40;;
75062;SDS011;63981;51.052;13.754;2023-03-01T14:58:44;14.68;;;12.38;;
75062;SDS011;63981;51.052;13.754;2023-03-01T15:01:16;16.58;;;12.82;;
75062;SDS011;63981;51.052;13.754;2023-03-01T15:03:44;17.63;;;12.93;;
75062;SDS011;63981;51.052;13.754;2023-03-01T15:06:14;17.17;;;13.63;;
75062;SDS011;63981;51.052;13.754;2023-03-01T15:08:47;17.80;;;13.68;;
75062;SDS011;63981;51.052;13.754;2023-03-01T15:11:29;17.25;;;12.43;;
75062;SDS011;63981;51.052;13.754;2023-03-01T15:13:56;14.50;;;11.15;;
75062;SDS011;63981;51.052;13.754;2023-03-01T15:16:26;18.42;;;12.80;;
75062;SDS011;63981;51.052;13.754;2023-03-01T15:19:00;16.77;;;12.05;;
75062;SDS011;63981;51.052;13.754;2023-03-01T15:21:32;15.18;;;11.15;;
75062;SDS011;63981;51.052;13.754;2023-03-01T15:26:55;16.70;;;11.10;;
75062;SDS011;63981;51.052;13.754;2023-03-01T15:29:32;15.60;;;10.50;;
75062;SDS011;63981;51.052;13.754;2023-03-01T15:32:05;15.50;;;11.85;;
75062;SDS011;63981;51.052;13.754;2023-03-01T15:34:49;18.05;;;11.60;;
75062;SDS011;63981;51.052;13.754;2023-03-01T15:40:21;14.82;;;10.80;;
75062;SDS011;63981;51.052;13.754;2023-03-01T15:42:59;16.38;;;10.77;;
75062;SDS011;63981;51.052;13.754;2023-03-01T15:45:32;14.52;;;9.35;;
75062;SDS011;63981;51.052;13.754;2023-03-01T15:48:18;17.02;;;11.82;;
75062;SDS011;63981;51.052;13.754;2023-03-01T15:50:53;13.57;;;9.27;;
75062;SDS011;63981;51.052;13.754;2023-03-01T15:53:20;16.75;;;10.65;;
75062;SDS011;63981;51.052;13.754;2023-03-01T15:55:45;15.63;;;10.68;;
75062;SDS011;63981;51.052;13.754;2023-03-01T15:58:18;16.85;;;10.70;;
75062;SDS011;63981;51.052;13.754;2023-03-01T16:00:46;17.35;;;10.60;;
75062;SDS011;63981;51.052;13.754;2023-03-01T16:03:14;18.27;;;10.45;;
75062;SDS011;63981;51.052;13.754;2023-03-01T16:05:47;18.38;;;10.60;;
75062;SDS011;63981;51.052;13.754;2023-03-01T16:08:13;15.32;;;9.95;;
75062;SDS011;63981;51.052;13.754;2023-03-01T16:10:40;18.02;;;10.70;;
75062;SDS011;63981;51.052;13.754;2023-03-01T16:13:09;16.58;;;9.70;;
75062;SDS011;63981;51.052;13.754;2023-03-01T16:15:36;17.15;;;10.02;;
75062;SDS011;63981;51.052;13.754;2023-03-01T16:18:02;16.65;;;9.95;;
75062;SDS011;63981;51.052;13.754;2023-03-01T16:20:28;17.60;;;9.00;;
75062;SDS011;63981;51.052;13.754;2023-03-01T16:22:57;16.63;;;10.00;;
75062;SDS011;63981;51.052;13.754;2023-03-01T16:25:27;14.95;;;8.40;;
75062;SDS011;63981;51.052;13.754;2023-03-01T16:27:54;14.98;;;8.85;;
75062;SDS011;63981;51.052;13.754;2023-03-01T16:30:21;13.32;;;8.55;;
75062;SDS011;63981;51.052;13.754;2023-03-01T16:32:48;14.90;;;8.20;;
75062;SDS011;63981;51.052;13.754;2023-03-01T16:35:15;15.98;;;9.18;;
75062;SDS011;63981;51.052;13.754;2023-03-01T16:37:43;18.92;;;8.95;;
75062;SDS011;63981;51.052;13.754;2023-03-01T16:40:19;18.27;;;9.30;;
75062;SDS011;63981;51.052;13.754;2023-03-01T16:42:51;14.85;;;7.95;;
75062;SDS011;63981;51.052;13.754;2023-03-01T16:45:17;12.15;;;7.65;;
75062;SDS011;63981;51.052;13.754;2023-03-01T16:47:43;14.80;;;8.70;;
75062;SDS011;63981;51.052;13.754;2023-03-01T16:50:09;9.82;;;6.85;;
75062;SDS011;63981;51.052;13.754;2023-03-01T16:52:36;16.33;;;8.90;;
75062;SDS011;63981;51.052;13.754;2023-03-01T16:55:02;17.52;;;9.70;;
75062;SDS011;63981;51.052;13.754;2023-03-01T16:57:29;15.18;;;8.95;;
75062;SDS011;63981;51.052;13.754;2023-03-01T16:59:55;14.02;;;7.28;;
75062;SDS011;63981;51.052;13.754;2023-03-01T17:02:21;12.02;;;7.43;;